Time;durP1;ratioP1;P1;durP2;ratioP2;P2;SDS_P1;SDS_P2;PMS_P1;PMS_P2;Temp;Humidity;BMP_temperature;BMP_pressure;BME280_temperature;BME280_humidity;BME280_pressure;Samples;Min_cycle;Max_cycle;Signal;HPM_P1;HPM_P2
2023/01/21 00:01:01;;;;;;;85.28;29.58;;;0.50;99.90;;;;;;4903510;29;20047;-73
2023/01/21 00:03:27;;;;;;;91.25;31.15;;;;;;;;;;4894134;29;20543;-73
2023/01/21 00:05:54;;;;;;;83.13;28.40;;;;;;;;;;4903424;29;20043;-74
2023/01/21 00:08:20;;;;;;;89.20;29.80;;;;;;;;;;4895281;29;20131;-73
2023/01/21 00:10:46;;;;;;;89.28;31.45;;;;;;;;;;4900205;29;20465;-73
2023/01/21 00:13:12;;;;;;;89.65;30.60;;;;;;;;;;4890378;29;20058;-73
2023/01/21 00:15:38;;;;;;;89.25;29.65;;;;;;;;;;4918386;29;20074;-73
2023/01/21 00:18:04;;;;;;;88.45;31.17;;;;;;;;;;4918678;29;20074;-73
2023/01/21 00:20:30;;;;;;;94.10;32.08;;;;;;;;;;4902859;29;20036;-73
2023/01/21 00:22:56;;;;;;;86.75;30.48;;;;;;;;;;4922177;29;20130;-73
2023/01/21 00:25:23;;;;;;;101.65;33.13;;;;;;;;;;4922418;29;20146;-73
2023/01/21 00:27:49;;;;;;;89.20;30.08;;;;;;;;;;4921513;29;20055;-74
2023/01/21 00:30:15;;;;;;;87.78;29.73;;;;;;;;;;4903702;29;20484;-74
2023/01/21 00:32:41;;;;;;;87.65;29.65;;;;;;;;;;4909038;29;20036;-74
2023/01/21 00:35:07;;;;;;;89.15;30.88;;;0.30;99.90;;;;;;4922309;29;20090;-74
2023/01/21 00:37:34;;;;;;;103.43;35.78;;;;;;;;;;4921436;29;20123;-74
2023/01/21 00:40:00;;;;;;;97.18;33.55;;;;;;;;;;4917856;29;20120;-74
2023/01/21 00:42:27;;;;;;;95.75;31.48;;;;;;;;;;4872753;29;20448;-74
2023/01/21 00:44:56;;;;;;;89.03;31.20;;;;;;;;;;4903571;29;20385;-75
2023/01/21 00:47:23;;;;;;;101.05;32.97;;;;;;;;;;4915892;29;20051;-74
2023/01/21 00:49:49;;;;;;;93.07;31.55;;;;;;;;;;4915496;29;20170;-74
2023/01/21 00:52:15;;;;;;;100.95;32.45;;;;;;;;;;4919776;29;20130;-74
2023/01/21 00:54:41;;;;;;;99.07;33.13;;;;;;;;;;4922229;29;20046;-74
2023/01/21 00:57:07;;;;;;;104.47;35.10;;;;;;;;;;4921901;29;20083;-74
2023/01/21 00:59:33;;;;;;;102.43;33.38;;;;;;;;;;4913834;29;20051;-74
2023/01/21 01:02:00;;;;;;;103.35;33.80;;;;;;;;;;4922080;29;20047;-74
2023/01/21 01:04:26;;;;;;;103.35;35.17;;;;;;;;;;4921976;29;20051;-74
2023/01/21 01:06:52;;;;;;;96.70;32.95;;;;;;;;;;4906022;29;20043;-74
2023/01/21 01:09:18;;;;;;;95.78;31.73;;;;;;;;;;4906584;29;20043;-74
2023/01/21 01:11:44;;;;;;;98.00;34.90;;;;;;;;;;4908305;29;20107;-74
2023/01/21 01:14:10;;;;;;;94.63;32.92;;;;;;;;;;4873035;29;20036;-74
2023/01/21 01:16:36;;;;;;;95.57;32.25;;;;;;;;;;4887619;29;20063;-74
2023/01/21 01:19:02;;;;;;;98.78;32.67;;;;;;;;;;4918633;29;20047;-74
2023/01/21 01:21:29;;;;;;;103.90;33.65;;;;;;;;;;4905868;29;20071;-74
2023/01/21 01:23:59;;;;;;;100.15;34.58;;;;;;;;;;4906261;29;20455;-74
2023/01/21 01:26:25;;;;;;;111.43;34.65;;;;;;;;;;4920957;29;20055;-74
2023/01/21 01:28:52;;;;;;;95.90;31.77;;;;;;;;;;4921563;29;20447;-74
2023/01/21 01:31:19;;;;;;;105.10;33.55;;;0.00;99.90;;;;;;4905734;29;20036;-74
2023/01/21 01:33:45;;;;;;;105.63;34.20;;;;;;;;;;4919742;29;20095;-74
2023/01/21 01:36:13;;;;;;;95.43;32.28;;;-0.20;99.90;;;;;;4920873;29;20040;-74
2023/01/21 01:38:40;;;;;;;95.13;31.25;;;;;;;;;;4921300;29;20126;-74
2023/01/21 01:41:06;;;;;;;95.28;31.23;;;;;;;;;;4921251;29;20048;-74
2023/01/21 01:43:56;;;;;;;84.20;30.75;;;-0.10;99.90;;;;;;4920774;29;20480;-74
2023/01/21 01:46:23;;;;;;;90.20;31.42;;;;;;;;;;4902630;29;20031;-74
2023/01/21 01:49:18;;;;;;;98.05;33.33;;;0.00;99.90;;;;;;4902649;29;20044;-74
2023/01/21 01:51:47;;;;;;;95.60;32.83;;;;;;;;;;4884508;29;20485;-74
2023/01/21 01:54:15;;;;;;;107.40;34.45;;;;;;;;;;4902299;29;20040;-74
2023/01/21 01:56:43;;;;;;;111.50;31.55;;;;;;;;;;4902091;29;20036;-75
2023/01/21 01:59:10;;;;;;;92.40;32.15;;;;;;;;;;4901907;29;20042;-74
2023/01/21 02:01:36;;;;;;;96.22;32.72;;;;;;;;;;4902218;29;20374;-74
2023/01/21 02:04:09;;;;;;;88.65;31.77;;;0.00;99.90;;;;;;4902111;29;20066;-74
2023/01/21 02:06:34;;;;;;;;;;;;;;;;;;4902749;29;20040;-74
2023/01/21 02:09:02;;;;;;;92.35;29.70;;;;;;;;;;4908541;29;20352;-75
2023/01/21 02:11:29;;;;;;;102.93;33.70;;;;;;;;;;4920520;29;20048;-75
2023/01/21 02:13:57;;;;;;;107.50;33.75;;;;;;;;;;4905275;29;20391;-75
2023/01/21 02:17:08;;;;;;;96.00;32.50;;;-0.10;99.90;;;;;;4904474;29;20039;-75
2023/01/21 02:19:34;;;;;;;97.20;31.73;;;;;;;;;;4891575;29;20051;-75
2023/01/21 02:22:00;;;;;;;104.35;31.88;;;;;;;;;;4920160;29;20131;-75
2023/01/21 02:24:32;;;;;;;98.80;32.70;;;;;;;;;;4918920;29;20129;-75
2023/01/21 02:27:16;;;;;;;101.30;34.28;;;;;;;;;;4919978;29;20060;-75
2023/01/21 02:29:46;;;;;;;98.63;31.77;;;;;;;;;;4915175;29;20512;-75
2023/01/21 02:32:24;;;;;;;95.65;31.85;;;;;;;;;;4909631;29;20051;-75
2023/01/21 02:35:02;;;;;;;100.70;31.80;;;;;;;;;;4901454;29;20110;-75
2023/01/21 02:38:05;;;;;;;91.00;32.03;;;-0.20;99.90;;;;;;4908751;29;20484;-75
2023/01/21 02:40:34;;;;;;;90.70;29.38;;;;;;;;;;4909965;29;20036;-75
2023/01/21 02:43:06;;;;;;;96.95;33.03;;;;;;;;;;4920261;29;20067;-75
2023/01/21 02:46:11;;;;;;;95.50;32.75;;;-0.30;99.90;;;;;;4903650;29;20039;-74
2023/01/21 02:48:49;;;;;;;93.75;32.25;;;-0.20;99.90;;;;;;4916436;29;20345;-75
2023/01/21 02:51:17;;;;;;;94.10;31.10;;;;;;;;;;4917351;29;20127;-75
2023/01/21 02:53:43;;;;;;;97.93;32.13;;;;;;;;;;4887613;29;20107;-75
2023/01/21 02:56:15;;;;;;;100.95;33.38;;;;;;;;;;4900979;29;20476;-74
2023/01/21 02:58:47;;;;;;;92.20;33.22;;;;;;;;;;4901092;29;20040;-74
2023/01/21 03:01:32;;;;;;;102.07;31.55;;;;;;;;;;4893295;29;20049;-74
2023/01/21 03:04:14;;;;;;;96.10;30.27;;;;;;;;;;4896760;29;20051;-74
2023/01/21 03:06:59;;;;;;;99.07;30.95;;;-0.30;99.90;;;;;;4901829;29;20048;-74
2023/01/21 03:09:27;;;;;;;95.38;33.08;;;;;;;;;;4887336;29;20051;-74
2023/01/21 03:11:57;;;;;;;103.43;32.45;;;;;;;;;;4919690;29;20040;-74
2023/01/21 03:17:40;;;;;;;99.15;31.25;;;-0.20;99.90;;;;;;4935555;29;20078;-74
2023/01/21 03:20:12;;;;;;;104.63;32.60;;;;;;;;;;4919553;29;20488;-75
2023/01/21 03:22:40;;;;;;;103.10;32.92;;;-0.30;99.90;;;;;;4916519;29;20056;-74
2023/01/21 03:25:07;;;;;;;103.00;32.65;;;;;;;;;;4907423;29;20130;-75
2023/01/21 03:27:36;;;;;;;100.93;31.73;;;-0.30;99.90;;;;;;4935748;29;20070;-74
2023/01/21 03:30:12;;;;;;;114.13;34.55;;;-0.10;99.90;;;;;;4931715;29;20131;-74
2023/01/21 03:32:39;;;;;;;105.22;32.80;;;;;;;;;;4900149;29;20047;-74
2023/01/21 03:35:06;;;;;;;96.35;32.20;;;-0.30;99.90;;;;;;4900375;29;20488;-74
2023/01/21 03:37:35;;;;;;;104.40;33.78;;;;;;;;;;4884840;29;20043;-74
2023/01/21 03:40:01;;;;;;;103.78;32.88;;;;;;;;;;4900269;29;20048;-74
2023/01/21 03:42:28;;;;;;;98.25;32.15;;;;;;;;;;4900079;29;20051;-74
2023/01/21 03:44:54;;;;;;;105.80;33.90;;;;;;;;;;4884676;29;20131;-74
2023/01/21 03:47:20;;;;;;;106.93;32.38;;;;;;;;;;4885812;29;20036;-74
2023/01/21 03:50:03;;;;;;;104.07;33.92;;;0.00;99.90;;;;;;4884814;29;20040;-74
2023/01/21 03:52:29;;;;;;;103.28;32.88;;;;;;;;;;4918252;29;20408;-74
2023/01/21 03:54:55;;;;;;;99.22;32.97;;;;;;;;;;4898261;29;20068;-74
2023/01/21 03:57:21;;;;;;;107.00;34.40;;;;;;;;;;4916772;29;20040;-74
2023/01/21 03:59:47;;;;;;;102.72;32.75;;;;;;;;;;4904873;29;20035;-74
2023/01/21 04:02:18;;;;;;;99.50;33.35;;;;;;;;;;4918896;29;20044;-74
2023/01/21 04:04:45;;;;;;;103.25;32.05;;;;;;;;;;4888298;29;20472;-74
2023/01/21 04:07:11;;;;;;;103.40;32.97;;;;;;;;;;4919030;29;20044;-74
2023/01/21 04:09:37;;;;;;;101.80;33.03;;;;;;;;;;4918299;29;20040;-74
2023/01/21 04:12:03;;;;;;;99.47;31.73;;;;;;;;;;4909575;29;20040;-74
2023/01/21 04:14:29;;;;;;;107.05;33.75;;;;;;;;;;4902088;29;20044;-74
2023/01/21 04:16:55;;;;;;;102.60;33.55;;;;;;;;;;4919969;29;20392;-74
2023/01/21 04:19:21;;;;;;;101.20;33.30;;;;;;;;;;4887289;29;20036;-74
2023/01/21 04:21:47;;;;;;;105.35;33.55;;;;;;;;;;4896411;29;20039;-74
2023/01/21 04:24:13;;;;;;;99.57;32.45;;;;;;;;;;4903263;29;20039;-74
2023/01/21 04:26:39;;;;;;;103.75;32.50;;;;;;;;;;4902912;29;20500;-74
2023/01/21 04:29:05;;;;;;;107.90;35.00;;;;;;;;;;4918797;29;20043;-74
2023/01/21 04:31:32;;;;;;;94.45;33.28;;;;;;;;;;4918411;29;20040;-74
2023/01/21 04:33:58;;;;;;;108.65;35.00;;;;;;;;;;4902826;29;20086;-74
2023/01/21 04:36:24;;;;;;;101.28;33.55;;;;;;;;;;4902878;29;20031;-74
2023/01/21 04:38:50;;;;;;;103.05;32.60;;;;;;;;;;4918752;29;20078;-74
2023/01/21 04:41:16;;;;;;;112.75;32.85;;;;;;;;;;4887487;29;20425;-74
2023/01/21 04:43:42;;;;;;;111.65;35.05;;;;;;;;;;4892902;29;20059;-74
2023/01/21 04:46:08;;;;;;;111.07;33.85;;;;;;;;;;4918056;29;20048;-74
2023/01/21 04:48:34;;;;;;;104.60;35.10;;;;;;;;;;4918720;29;20069;-74
2023/01/21 04:51:00;;;;;;;110.20;34.63;;;;;;;;;;4918411;29;20043;-74
2023/01/21 04:53:26;;;;;;;96.80;31.45;;;;;;;;;;4918453;29;20040;-74
2023/01/21 04:55:53;;;;;;;98.35;32.95;;;;;;;;;;4918167;29;20044;-74
2023/01/21 04:58:19;;;;;;;107.25;32.60;;;;;;;;;;4902987;29;20130;-74
2023/01/21 05:00:45;;;;;;;104.50;32.67;;;;;;;;;;4916855;29;20051;-74
2023/01/21 05:03:11;;;;;;;99.90;31.65;;;;;;;;;;4916923;29;20102;-74
2023/01/21 05:05:37;;;;;;;96.38;30.77;;;;;;;;;;4917972;29;20040;-74
2023/01/21 05:08:03;;;;;;;94.13;30.17;;;;;;;;;;4900264;29;20043;-74
2023/01/21 05:10:30;;;;;;;96.60;32.28;;;;;;;;;;4921861;29;20489;-74
2023/01/21 05:12:56;;;;;;;103.38;33.85;;;;;;;;;;4907427;29;20119;-74
2023/01/21 05:15:22;;;;;;;111.60;34.20;;;;;;;;;;4903273;29;20465;-74
2023/01/21 05:17:48;;;;;;;105.65;34.33;;;;;;;;;;4887584;29;20104;-74
2023/01/21 05:20:15;;;;;;;102.13;32.60;;;;;;;;;;4902930;29;20086;-74
2023/01/21 05:22:41;;;;;;;105.43;34.20;;;;;;;;;;4891198;29;20457;-74
2023/01/21 05:25:07;;;;;;;111.03;33.63;;;;;;;;;;4905803;29;20043;-74
2023/01/21 05:27:34;;;;;;;108.60;33.03;;;;;;;;;;4934475;29;20424;-74
2023/01/21 05:30:00;;;;;;;97.88;32.78;;;;;;;;;;4902723;29;20051;-74
2023/01/21 05:32:26;;;;;;;98.85;31.38;;;;;;;;;;4908414;29;20492;-75
2023/01/21 05:34:52;;;;;;;97.95;31.45;;;;;;;;;;4902957;29;20044;-73
2023/01/21 05:37:18;;;;;;;102.57;32.95;;;;;;;;;;4902594;29;20481;-74
2023/01/21 05:39:44;;;;;;;105.25;34.20;;;;;;;;;;4920562;29;20528;-74
2023/01/21 05:42:10;;;;;;;100.95;32.13;;;;;;;;;;4914482;29;20131;-74
2023/01/21 05:44:36;;;;;;;110.63;34.28;;;;;;;;;;4886987;29;20047;-75
2023/01/21 05:47:03;;;;;;;112.63;35.60;;;;;;;;;;4902442;29;20048;-74
2023/01/21 05:49:29;;;;;;;110.40;35.25;;;;;;;;;;4902669;29;20051;-74
2023/01/21 05:51:55;;;;;;;112.75;34.38;;;;;;;;;;4886517;29;20099;-75
2023/01/21 05:54:21;;;;;;;103.47;34.85;;;;;;;;;;4912527;29;20051;-74
2023/01/21 05:56:47;;;;;;;118.93;34.95;;;;;;;;;;4913116;29;20123;-74
2023/01/21 05:59:13;;;;;;;106.20;33.58;;;;;;;;;;4901595;29;20122;-75
2023/01/21 06:01:39;;;;;;;111.05;34.25;;;;;;;;;;4920232;29;20044;-73
2023/01/21 06:04:05;;;;;;;108.47;35.17;;;;;;;;;;4900049;29;20044;-73
2023/01/21 06:06:31;;;;;;;113.45;34.90;;;;;;;;;;4908936;29;20054;-72
2023/01/21 06:08:57;;;;;;;117.25;34.75;;;;;;;;;;4909745;29;20420;-73
2023/01/21 06:11:23;;;;;;;106.20;35.38;;;;;;;;;;4904802;29;20059;-73
2023/01/21 06:13:49;;;;;;;108.80;34.58;;;;;;;;;;4913898;29;20086;-74
2023/01/21 06:16:16;;;;;;;113.78;34.05;;;;;;;;;;4919490;29;20504;-74
2023/01/21 06:18:42;;;;;;;116.57;36.42;;;;;;;;;;4904640;29;20091;-73
2023/01/21 06:21:08;;;;;;;106.45;33.00;;;;;;;;;;4912257;29;20036;-74
2023/01/21 06:23:34;;;;;;;105.32;31.50;;;;;;;;;;4886708;29;20516;-73
2023/01/21 06:26:00;;;;;;;106.22;35.47;;;;;;;;;;4886067;29;20196;-74
2023/01/21 06:28:26;;;;;;;111.38;35.50;;;;;;;;;;4915947;29;20047;-73
2023/01/21 06:30:52;;;;;;;123.32;37.63;;;;;;;;;;4901918;29;20040;-74
2023/01/21 06:33:18;;;;;;;113.60;36.63;;;;;;;;;;4904013;29;20079;-73
2023/01/21 06:35:46;;;;;;;124.10;37.58;;;;;;;;;;4901904;29;20051;-73
2023/01/21 06:38:12;;;;;;;114.90;36.45;;;;;;;;;;4914854;29;20051;-73
2023/01/21 06:40:38;;;;;;;121.43;36.78;;;;;;;;;;4887691;29;20096;-74
2023/01/21 06:43:04;;;;;;;131.18;38.88;;;;;;;;;;4917188;29;20047;-73
2023/01/21 06:45:30;;;;;;;118.93;35.72;;;;;;;;;;4904526;29;20119;-74
2023/01/21 06:47:56;;;;;;;116.25;36.35;;;;;;;;;;4885856;29;20048;-73
2023/01/21 06:50:22;;;;;;;112.15;37.33;;;;;;;;;;4883587;29;20055;-73
2023/01/21 06:52:49;;;;;;;114.22;35.42;;;;;;;;;;4907317;29;20092;-72
2023/01/21 06:55:15;;;;;;;124.72;38.08;;;;;;;;;;4913064;29;20044;-71
2023/01/21 06:57:43;;;;;;;124.82;38.00;;;;;;;;;;4904438;29;20130;-73
2023/01/21 07:00:10;;;;;;;118.05;35.90;;;;;;;;;;4917873;29;20047;-74
2023/01/21 07:02:36;;;;;;;112.75;35.50;;;;;;;;;;4907902;29;20048;-73
2023/01/21 07:05:02;;;;;;;129.40;36.60;;;;;;;;;;4910102;29;20047;-73
2023/01/21 07:07:28;;;;;;;116.30;38.30;;;;;;;;;;4900091;29;20126;-73
2023/01/21 07:09:54;;;;;;;108.90;35.22;;;;;;;;;;4908327;29;20043;-74
2023/01/21 07:12:20;;;;;;;117.78;34.38;;;;;;;;;;4894821;29;20047;-74
2023/01/21 07:14:47;;;;;;;119.95;36.25;;;;;;;;;;4906638;29;20047;-74
2023/01/21 07:17:13;;;;;;;124.18;37.80;;;;;;;;;;4903784;29;20046;-74
2023/01/21 07:19:39;;;;;;;125.25;37.45;;;;;;;;;;4915351;29;20481;-74
2023/01/21 07:22:05;;;;;;;119.53;39.53;;;;;;;;;;4896936;29;20191;-73
2023/01/21 07:24:31;;;;;;;127.00;37.38;;;;;;;;;;4901873;29;20511;-74
2023/01/21 07:26:57;;;;;;;130.52;36.47;;;;;;;;;;4900987;29;20090;-74
2023/01/21 07:29:23;;;;;;;125.90;38.42;;;;;;;;;;4934646;29;20507;-74
2023/01/21 07:31:49;;;;;;;125.47;39.00;;;;;;;;;;4910036;29;20067;-72
2023/01/21 07:34:15;;;;;;;123.85;39.63;;;;;;;;;;4900296;29;20052;-74
2023/01/21 07:36:41;;;;;;;139.95;40.90;;;;;;;;;;4889983;29;20048;-73
2023/01/21 07:39:07;;;;;;;120.95;37.58;;;;;;;;;;4884770;29;20040;-73
2023/01/21 07:41:33;;;;;;;120.05;38.50;;;;;;;;;;4900577;29;20126;-74
2023/01/21 07:44:00;;;;;;;122.90;37.58;;;;;;;;;;4903511;29;20107;-73
2023/01/21 07:46:26;;;;;;;126.72;38.70;;;;;;;;;;4902180;29;20382;-75
2023/01/21 07:48:52;;;;;;;115.43;36.05;;;;;;;;;;4903867;29;20103;-77
2023/01/21 07:51:19;;;;;;;118.15;37.38;;;;;;;;;;4890048;29;20147;-74
2023/01/21 07:53:45;;;;;;;132.63;37.90;;;;;;;;;;4900397;29;20099;-73
2023/01/21 07:56:11;;;;;;;128.88;38.70;;;;;;;;;;4911568;29;20040;-75
2023/01/21 07:58:37;;;;;;;130.32;39.97;;;;;;;;;;4903769;29;20047;-73
2023/01/21 08:01:04;;;;;;;118.10;38.42;;;;;;;;;;4910035;29;20094;-73
2023/01/21 08:03:30;;;;;;;121.93;37.88;;;;;;;;;;4908784;29;20032;-74
2023/01/21 08:05:56;;;;;;;128.43;38.70;;;;;;;;;;4910560;29;20070;-73
2023/01/21 08:08:22;;;;;;;133.18;38.25;;;;;;;;;;4890224;29;20111;-74
2023/01/21 08:10:52;;;;;;;140.02;37.95;;;;;;;;;;4890517;29;20123;-74
2023/01/21 08:13:18;;;;;;;130.23;39.83;;;;;;;;;;4915058;29;20130;-74
2023/01/21 08:15:44;;;;;;;139.07;41.15;;;;;;;;;;4888265;29;20499;-74
2023/01/21 08:18:11;;;;;;;128.80;37.65;;;;;;;;;;4906931;29;20054;-73
2023/01/21 08:20:37;;;;;;;125.53;37.53;;;;;;;;;;4903065;29;20397;-74
2023/01/21 08:23:03;;;;;;;136.52;42.28;;;;;;;;;;4900848;29;20095;-74
2023/01/21 08:25:29;;;;;;;132.02;40.95;;;;;;;;;;4887681;29;20110;-74
2023/01/21 08:27:55;;;;;;;136.57;41.58;;;;;;;;;;4918789;29;20118;-74
2023/01/21 08:30:21;;;;;;;128.95;39.92;;;;;;;;;;4902702;29;20341;-74
2023/01/21 08:32:47;;;;;;;122.25;39.00;;;;;;;;;;4915376;29;20055;-74
2023/01/21 08:35:13;;;;;;;127.38;38.42;;;;;;;;;;4902534;29;20043;-74
2023/01/21 08:37:39;;;;;;;137.82;40.13;;;;;;;;;;4918865;29;20043;-74
2023/01/21 08:40:06;;;;;;;120.00;40.50;;;;;;;;;;4918912;29;20062;-74
2023/01/21 08:42:32;;;;;;;126.47;39.47;;;;;;;;;;4920171;29;20126;-74
2023/01/21 08:44:58;;;;;;;135.10;38.92;;;;;;;;;;4922805;29;20070;-74
2023/01/21 08:47:24;;;;;;;126.00;38.97;;;;;;;;;;4906645;29;20131;-74
2023/01/21 08:49:50;;;;;;;143.40;42.80;;;;;;;;;;4922141;29;20039;-72
2023/01/21 08:52:16;;;;;;;129.95;39.60;;;;;;;;;;4920502;29;20068;-74
2023/01/21 08:54:43;;;;;;;143.57;42.38;;;;;;;;;;4895800;29;20385;-74
2023/01/21 08:57:10;;;;;;;135.77;40.42;;;;;;;;;;4906355;29;20440;-74
2023/01/21 08:59:36;;;;;;;135.65;40.22;;;;;;;;;;4909451;29;20043;-74
2023/01/21 09:02:02;;;;;;;119.30;40.97;;;;;;;;;;4903230;29;20044;-74
2023/01/21 09:04:28;;;;;;;131.13;39.60;;;;;;;;;;4912048;29;20051;-74
2023/01/21 09:06:54;;;;;;;131.75;40.03;;;;;;;;;;4911289;29;20051;-74
2023/01/21 09:09:20;;;;;;;145.38;42.35;;;;;;;;;;4910386;29;20047;-74
2023/01/21 09:11:46;;;;;;;142.98;44.67;;;;;;;;;;4904530;29;20547;-74
2023/01/21 09:14:13;;;;;;;134.25;39.55;;;;;;;;;;4907673;29;20040;-74
2023/01/21 09:16:39;;;;;;;139.07;41.42;;;;;;;;;;4903847;29;20131;-74
2023/01/21 09:19:05;;;;;;;133.55;39.60;;;;;;;;;;4899312;29;20468;-74
2023/01/21 09:21:33;;;;;;;130.10;39.22;;;;;;;;;;4880031;29;20131;-74
2023/01/21 09:23:59;;;;;;;137.15;41.80;;;;;;;;;;4921769;29;20078;-74
2023/01/21 09:26:26;;;;;;;155.88;46.15;;;;;;;;;;4906936;29;20064;-72
2023/01/21 09:28:54;;;;;;;164.85;47.97;;;1.10;99.90;;;;;;4918695;29;20378;-72
2023/01/21 09:31:20;;;;;;;161.18;47.22;;;;;;;;;;4906823;29;20484;-72
2023/01/21 09:33:48;;;;;;;142.88;44.65;;;;;;;;;;4921616;29;20507;-72
2023/01/21 09:36:18;;;;;;;144.73;45.80;;;1.30;99.90;;;;;;4921557;29;20138;-72
2023/01/21 09:38:45;;;;;;;150.20;44.95;;;1.40;99.90;;;;;;4920281;29;20036;-74
2023/01/21 09:41:33;;;;;;;158.60;45.38;;;1.20;99.90;;;;;;4921237;29;20494;-74
2023/01/21 09:44:21;;;;;;;145.50;44.22;;;;;;;;;;4910010;29;20448;-74
2023/01/21 09:47:10;;;;;;;143.52;43.97;;;;;;;;;;4902499;29;20088;-73
2023/01/21 09:49:49;;;;;;;149.95;46.60;;;;;;;;;;4888421;29;20040;-74
2023/01/21 09:52:24;;;;;;;152.13;44.78;;;;;;;;;;4921346;29;20044;-74
2023/01/21 09:54:50;;;;;;;143.45;45.40;;;;;;;;;;4914060;29;20123;-74
2023/01/21 09:57:23;;;;;;;153.48;47.80;;;;;;;;;;4903826;29;20040;-74
2023/01/21 10:00:08;;;;;;;147.93;45.17;;;;;;;;;;4919891;29;20039;-74
2023/01/21 10:02:41;;;;;;;144.55;45.38;;;;;;;;;;4910693;29;20051;-74
2023/01/21 10:05:11;;;;;;;143.50;44.80;;;;;;;;;;4892702;29;20090;-74
2023/01/21 10:07:44;;;;;;;145.50;43.10;;;;;;;;;;4921230;29;20043;-75
2023/01/21 10:10:10;;;;;;;135.52;42.88;;;;;;;;;;4918291;29;20122;-74
2023/01/21 10:12:43;;;;;;;148.23;43.58;;;;;;;;;;4920968;29;20052;-74
2023/01/21 10:15:27;;;;;;;138.05;43.47;;;;;;;;;;4907010;29;20040;-74
2023/01/21 10:17:53;;;;;;;152.40;44.50;;;;;;;;;;4901902;29;20048;-73
2023/01/21 10:20:22;;;;;;;129.75;41.00;;;;;;;;;;4891783;29;20143;-74
2023/01/21 10:23:09;;;;;;;138.98;41.22;;;;;;;;;;4915698;29;20102;-74
2023/01/21 10:25:36;;;;;;;154.20;43.33;;;;;;;;;;4892723;29;20056;-74
2023/01/21 10:28:10;;;;;;;146.65;44.50;;;2.30;99.90;;;;;;4918923;29;20182;-74
2023/01/21 10:30:38;;;;;;;138.05;40.78;;;;;;;;;;4917382;29;20496;-74
2023/01/21 10:33:06;;;;;;;114.32;38.38;;;;;;;;;;4917738;29;20044;-74
2023/01/21 10:35:51;;;;;;;143.90;38.65;;;2.50;99.90;;;;;;4893608;29;20036;-74
2023/01/21 10:38:32;;;;;;;119.03;36.85;;;;;;;;;;4933181;29;20051;-74
2023/01/21 10:41:02;;;;;;;110.50;34.90;;;;;;;;;;4917653;29;20515;-74
2023/01/21 10:43:31;;;;;;;113.88;36.63;;;;;;;;;;4917459;29;20135;-74
2023/01/21 10:45:57;;;;;;;103.95;34.00;;;;;;;;;;4932449;29;20047;-74
2023/01/21 10:48:32;;;;;;;101.30;33.17;;;;;;;;;;4902640;29;20051;-73
2023/01/21 10:51:05;;;;;;;93.32;31.27;;;;;;;;;;4902566;29;20421;-73
2023/01/21 10:53:35;;;;;;;95.22;32.08;;;;;;;;;;4910585;29;20044;-73
2023/01/21 10:56:20;;;;;;;95.25;31.00;;;;;;;;;;4917776;29;20467;-73
2023/01/21 10:58:55;;;;;;;93.35;32.30;;;;;;;;;;4916581;29;20488;-73
2023/01/21 11:01:24;;;;;;;84.05;29.17;;;;;;;;;;4911762;29;20050;-73
2023/01/21 11:03:53;;;;;;;82.72;26.90;;;3.20;99.90;;;;;;4918322;29;20044;-73
2023/01/21 11:06:21;;;;;;;80.68;27.65;;;3.20;99.90;;;;;;4916862;29;20043;-73
2023/01/21 11:08:57;;;;;;;78.15;27.15;;;3.10;99.90;;;;;;4916056;29;20043;-73
2023/01/21 11:11:28;;;;;;;77.30;27.60;;;;;;;;;;4916253;29;20040;-73
2023/01/21 11:13:54;;;;;;;83.20;28.52;;;;;;;;;;4885603;29;20048;-73
2023/01/21 11:16:39;;;;;;;77.00;26.23;;;;;;;;;;4906463;29;20031;-73
2023/01/21 11:19:06;;;;;;;56.08;22.40;;;3.40;99.90;;;;;;4930601;29;20032;-73
2023/01/21 11:21:32;;;;;;;57.70;21.88;;;;;;;;;;4887340;29;20135;-73
2023/01/21 11:23:59;;;;;;;63.80;24.50;;;;;;;;;;4896939;29;20040;-73
2023/01/21 11:26:26;;;;;;;53.60;22.85;;;;;;;;;;4894870;29;20087;-72
2023/01/21 11:29:12;;;;;;;49.80;20.02;;;3.60;99.90;;;;;;4931839;29;20059;-71
2023/01/21 11:31:39;;;;;;;51.83;19.58;;;;;;;;;;4901746;29;20051;-71
2023/01/21 11:34:06;;;;;;;44.55;18.55;;;;;;;;;;4909545;29;20519;-72
2023/01/21 11:36:32;;;;;;;40.05;16.83;;;;;;;;;;4917050;29;20040;-72
2023/01/21 11:39:03;;;;;;;43.53;17.75;;;;;;;;;;4904416;29;20445;-71
2023/01/21 11:41:29;;;;;;;39.35;16.85;;;;;;;;;;4914975;29;20090;-71
2023/01/21 11:44:16;;;;;;;36.42;15.43;;;4.30;99.90;;;;;;4912602;29;20052;-71
2023/01/21 11:46:43;;;;;;;40.92;15.73;;;;;;;;;;4915716;29;20044;-72
2023/01/21 11:49:09;;;;;;;31.60;14.75;;;;;;;;;;4914234;29;20102;-71
2023/01/21 11:51:37;;;;;;;36.80;15.20;;;4.20;99.90;;;;;;4914643;29;20059;-72
2023/01/21 11:54:12;;;;;;;40.45;15.80;;;;;;;;;;4929508;29;20032;-71
2023/01/21 11:56:39;;;;;;;41.10;17.88;;;;;;;;;;4910669;29;20086;-71
2023/01/21 11:59:39;;;;;;;39.55;16.85;;;4.40;99.90;;;;;;4908370;29;20073;-71
2023/01/21 12:02:24;;;;;;;42.60;17.38;;;;;;;;;;4908771;29;20492;-71
2023/01/21 12:04:51;;;;;;;40.30;17.45;;;;;;;;;;4915200;29;20050;-71
2023/01/21 12:07:22;;;;;;;42.03;16.60;;;;;;;;;;4915740;29;20134;-71
2023/01/21 12:09:53;;;;;;;37.28;15.25;;;4.40;99.90;;;;;;4930332;29;20102;-71
2023/01/21 12:12:27;;;;;;;39.92;16.30;;;;;;;;;;4902130;29;20059;-71
2023/01/21 12:14:54;;;;;;;37.67;16.50;;;;;;;;;;4918406;29;20108;-71
2023/01/21 12:17:28;;;;;;;43.97;17.08;;;;;;;;;;4918258;29;20043;-71
2023/01/21 12:19:54;;;;;;;51.40;19.15;;;;;;;;;;4912093;29;20654;-71
2023/01/21 12:22:31;;;;;;;45.97;19.48;;;;;;;;;;4901344;29;20369;-71
2023/01/21 12:25:00;;;;;;;45.50;19.90;;;;;;;;;;4907923;29;20047;-71
2023/01/21 12:27:45;;;;;;;54.10;21.17;;;4.50;99.90;;;;;;4898081;29;20052;-73
2023/01/21 12:30:17;;;;;;;54.10;20.20;;;;;;;;;;4886062;29;20044;-71
2023/01/21 12:32:53;;;;;;;39.55;18.88;;;4.60;99.90;;;;;;4906084;29;20086;-71
2023/01/21 12:35:22;;;;;;;46.22;18.00;;;;;;;;;;4912817;29;20036;-71
2023/01/21 12:37:57;;;;;;;38.83;16.10;;;4.40;99.90;;;;;;4916754;29;20035;-70
2023/01/21 12:40:42;;;;;;;41.95;16.77;;;;;;;;;;4886887;29;20064;-70
2023/01/21 12:43:15;;;;;;;38.25;15.68;;;4.60;99.90;;;;;;4915126;29;20058;-71
2023/01/21 12:45:46;;;;;;;42.25;18.00;;;;;;;;;;4904445;29;20058;-70
2023/01/21 12:48:21;;;;;;;40.22;17.25;;;;;;;;;;4901974;29;20182;-71
2023/01/21 12:50:51;;;;;;;37.00;17.17;;;;;;;;;;4916174;29;20054;-71
2023/01/21 12:53:33;;;;;;;42.40;17.90;;;4.70;99.90;;;;;;4908005;29;20032;-70
2023/01/21 12:56:02;;;;;;;39.33;16.90;;;;;;;;;;4930326;29;20039;-71
2023/01/21 12:58:35;;;;;;;39.80;16.90;;;;;;;;;;4910015;29;20612;-70
2023/01/21 13:01:07;;;;;;;34.97;15.68;;;5.10;99.90;;;;;;4899597;29;20040;-71
2023/01/21 13:03:52;;;;;;;30.48;16.23;;;;;;;;;;4903943;29;20450;-70
2023/01/21 13:06:21;;;;;;;43.25;19.10;;;;;;;;;;4916835;29;20070;-71
2023/01/21 13:08:58;;;;;;;44.47;18.58;;;5.20;99.90;;;;;;4928495;29;20099;-71
2023/01/21 13:11:30;;;;;;;47.22;19.08;;;;;;;;;;4916268;29;21361;-70
2023/01/21 13:14:01;;;;;;;45.22;18.88;;;;;;;;;;4912006;29;20388;-70
2023/01/21 13:16:28;;;;;;;34.92;15.60;;;;;;;;;;4899657;29;20127;-70
2023/01/21 13:18:55;;;;;;;45.65;17.13;;;;;;;;;;4897331;29;20046;-70
2023/01/21 13:21:38;;;;;;;36.00;16.30;;;;;;;;;;4901771;29;20051;-69
2023/01/21 13:24:04;;;;;;;32.25;14.95;;;;;;;;;;4911394;29;20078;-70
2023/01/21 13:26:37;;;;;;;35.15;14.63;;;5.40;99.90;;;;;;4901146;29;20096;-70
2023/01/21 13:29:44;;;;;;;28.38;13.70;;;5.40;99.90;;;;;;4910139;29;20118;-70
2023/01/21 13:32:27;;;;;;;23.48;12.07;;;5.40;99.90;;;;;;4900163;29;20047;-70
2023/01/21 13:34:57;;;;;;;21.73;10.25;;;;;;;;;;4932478;29;20043;-70
2023/01/21 13:37:26;;;;;;;21.63;10.82;;;;;;;;;;4891605;29;20527;-70
2023/01/21 13:40:20;;;;;;;22.45;11.23;;;5.40;99.90;;;;;;4908996;29;20115;-70
2023/01/21 13:42:49;;;;;;;20.65;10.20;;;;;;;;;;4918442;29;20087;-70
2023/01/21 13:45:27;;;;;;;25.25;11.48;;;;;;;;;;4916801;29;20040;-70
2023/01/21 13:48:21;;;;;;;18.25;9.65;;;5.60;99.90;;;;;;4914431;29;20051;-70
2023/01/21 13:50:47;;;;;;;17.65;8.82;;;;;;;;;;4908412;29;20047;-70
2023/01/21 13:53:16;;;;;;;18.27;8.45;;;;;;;;;;4907721;29;20051;-70
2023/01/21 13:55:42;;;;;;;21.48;8.90;;;;;;;;;;4911738;29;20042;-71
2023/01/21 13:58:10;;;;;;;20.13;8.90;;;;;;;;;;4898126;29;20040;-71
2023/01/21 14:00:39;;;;;;;18.15;9.65;;;;;;;;;;4919695;29;20118;-71
2023/01/21 14:03:08;;;;;;;16.50;9.00;;;;;;;;;;4919729;29;20519;-71
2023/01/21 14:06:14;;;;;;;17.27;9.25;;;5.40;99.90;;;;;;4921100;29;20049;-71
2023/01/21 14:08:45;;;;;;;22.75;10.05;;;;;;;;;;4919911;29;20075;-71
2023/01/21 14:11:25;;;;;;;18.30;9.50;;;;;;;;;;4905560;29;20043;-71
2023/01/21 14:14:06;;;;;;;17.92;9.75;;;;;;;;;;4920915;29;20054;-71